createdAt,value
2022-11-27T00:03:54.283Z,99.25
2022-11-27T00:09:16.667Z,98.70
2022-11-27T00:14:38.373Z,97.21
2022-11-27T00:20:00.044Z,97.57
2022-11-27T00:25:21.818Z,96.82
2022-11-27T00:30:43.546Z,96.29
2022-11-27T00:36:07.166Z,96.03
2022-11-27T00:41:30.329Z,95.31
2022-11-27T00:46:52.063Z,95.89
2022-11-27T00:52:13.784Z,95.66
2022-11-27T00:57:35.484Z,95.67
2022-11-27T01:02:57.156Z,95.50
2022-11-27T01:08:19.460Z,95.76
2022-11-27T01:13:42.140Z,96.02
2022-11-27T01:19:04.695Z,95.68
2022-11-27T01:24:26.425Z,95.16
2022-11-27T01:29:48.122Z,95.75
2022-11-27T01:35:09.859Z,95.71
2022-11-27T01:40:31.862Z,94.93
2022-11-27T01:45:53.643Z,95.44
2022-11-27T01:51:15.748Z,95.51
2022-11-27T01:56:40.059Z,95.52
2022-11-27T02:02:03.694Z,95.64
2022-11-27T02:07:27.755Z,94.83
2022-11-27T02:12:57.661Z,94.13
2022-11-27T02:18:37.310Z,94.86
2022-11-27T02:24:41.524Z,94.09
2022-11-27T02:30:05.037Z,93.80
2022-11-27T02:35:32.583Z,94.15
2022-11-27T02:41:00.324Z,93.31
2022-11-27T02:46:22.878Z,93.76
2022-11-27T02:51:49.419Z,92.62
2022-11-27T02:57:13.203Z,92.84
2022-11-27T03:02:39.990Z,93.26
2022-11-27T03:08:06.903Z,93.58
2022-11-27T03:13:32.546Z,93.56
2022-11-27T03:19:01.008Z,93.98
2022-11-27T03:24:23.412Z,94.49
2022-11-27T03:29:51.877Z,92.82
2022-11-27T03:35:17.643Z,92.65
2022-11-27T03:41:00.952Z,92.86
2022-11-27T03:46:44.768Z,92.72
2022-11-27T03:52:18.385Z,93.59
2022-11-27T03:57:52.591Z,93.25
2022-11-27T04:03:14.386Z,93.73
2022-11-27T04:08:36.082Z,93.24
2022-11-27T04:13:58.308Z,92.92
2022-11-27T04:19:19.998Z,93.69
2022-11-27T04:24:41.877Z,93.13
2022-11-27T04:30:04.636Z,93.23
2022-11-27T04:35:26.381Z,92.39
2022-11-27T04:40:48.383Z,92.12
2022-11-27T04:46:10.099Z,92.16
2022-11-27T04:51:31.839Z,92.01
2022-11-27T04:56:53.513Z,91.35
2022-11-27T05:02:15.340Z,91.97
2022-11-27T05:07:37.320Z,92.00
2022-11-27T05:12:59.019Z,91.67
2022-11-27T05:18:20.969Z,91.23
2022-11-27T05:23:42.629Z,90.80
2022-11-27T05:29:04.396Z,90.79
2022-11-27T05:34:26.112Z,90.99
2022-11-27T05:39:47.844Z,91.07
2022-11-27T05:45:09.939Z,92.20
2022-11-27T05:50:31.746Z,92.30
2022-11-27T05:55:53.631Z,92.12
2022-11-27T06:01:18.043Z,92.37
2022-11-27T06:06:39.837Z,92.52
2022-11-27T06:12:01.785Z,93.00
2022-11-27T06:17:23.477Z,92.65
2022-11-27T06:22:45.250Z,91.20
2022-11-27T06:28:06.979Z,92.29
2022-11-27T06:33:28.695Z,91.57
2022-11-27T06:38:50.937Z,91.99
2022-11-27T06:44:12.682Z,92.12
2022-11-27T06:49:34.956Z,91.58
2022-11-27T06:54:56.638Z,92.22
2022-11-27T07:00:18.990Z,92.37
2022-11-27T07:05:40.698Z,90.40
2022-11-27T07:11:07.808Z,90.40
2022-11-27T07:16:32.229Z,91.02
2022-11-27T07:21:54.025Z,90.42
2022-11-27T07:27:15.691Z,90.23
2022-11-27T07:32:37.540Z,89.62
2022-11-27T07:37:59.205Z,90.32
2022-11-27T07:43:20.995Z,89.14
2022-11-27T07:48:42.695Z,89.28
2022-11-27T07:54:04.575Z,88.50
2022-11-27T07:59:26.443Z,89.69
2022-11-27T08:04:48.176Z,90.50
2022-11-27T08:10:10.122Z,90.53
2022-11-27T08:15:32.377Z,91.00
2022-11-27T08:20:54.107Z,89.96
2022-11-27T08:26:16.342Z,90.98
2022-11-27T08:31:38.350Z,91.79
2022-11-27T08:37:00.176Z,91.14
2022-11-27T08:42:21.891Z,90.98
2022-11-27T08:47:43.601Z,90.20
2022-11-27T08:53:05.377Z,90.91
2022-11-27T08:58:27.060Z,90.12
2022-11-27T09:03:49.243Z,90.06
2022-11-27T09:09:11.149Z,90.22
2022-11-27T09:14:32.816Z,88.17
2022-11-27T09:19:54.532Z,88.32
2022-11-27T09:25:16.387Z,88.36
2022-11-27T09:30:38.075Z,88.50
2022-11-27T09:36:07.431Z,87.39
2022-11-27T09:41:33.668Z,86.85
2022-11-27T09:46:57.014Z,87.90
2022-11-27T09:52:34.855Z,87.01
2022-11-27T09:58:02.702Z,88.23
2022-11-27T10:03:26.556Z,87.56
2022-11-27T10:08:57.984Z,86.98
2022-11-27T10:14:38.304Z,88.29
2022-11-27T10:20:39.691Z,87.87
2022-11-27T10:26:07.635Z,88.48
2022-11-27T10:31:41.483Z,87.13
2022-11-27T10:37:13.934Z,88.67
2022-11-27T10:42:52.586Z,88.67
2022-11-27T10:48:15.745Z,89.79
2022-11-27T10:53:40.725Z,91.04
2022-11-27T10:59:10.179Z,90.21
2022-11-27T11:04:37.961Z,89.15
2022-11-27T11:10:00.487Z,90.94
2022-11-27T11:15:22.420Z,90.50
2022-11-27T11:20:48.540Z,88.96
2022-11-27T11:26:25.678Z,87.44
2022-11-27T11:31:47.499Z,85.13
2022-11-27T11:37:22.476Z,84.42
2022-11-27T11:42:58.722Z,83.23
2022-11-27T11:48:25.559Z,83.34
2022-11-27T11:54:02.820Z,84.16
2022-11-27T11:59:39.606Z,83.00
2022-11-27T12:05:37.944Z,80.16
2022-11-27T12:11:19.790Z,81.08
2022-11-27T12:16:50.702Z,77.78
2022-11-27T12:22:46.537Z,77.04
2022-11-27T12:28:56.005Z,75.01
2022-11-27T12:35:02.793Z,76.95
2022-11-27T12:40:50.881Z,78.28
2022-11-27T12:46:19.851Z,74.33
2022-11-27T12:51:50.896Z,73.94
2022-11-27T12:57:18.864Z,76.42
2022-11-27T13:03:11.462Z,76.12
2022-11-27T13:08:52.447Z,76.78
2022-11-27T13:14:23.994Z,77.34
2022-11-27T13:19:48.804Z,76.16
2022-11-27T13:25:14.584Z,75.05
2022-11-27T13:30:38.043Z,76.03
2022-11-27T13:36:03.227Z,75.44
2022-11-27T13:41:35.899Z,70.73
2022-11-27T13:47:06.207Z,73.47
2022-11-27T13:52:29.501Z,73.60
2022-11-27T13:57:53.199Z,73.65
2022-11-27T14:03:25.203Z,74.06
2022-11-27T14:08:57.524Z,72.19
2022-11-27T14:14:22.035Z,73.84
2022-11-27T14:19:45.193Z,72.45
2022-11-27T14:25:31.908Z,75.18
2022-11-27T14:30:56.897Z,74.01
2022-11-27T14:36:24.916Z,75.23
2022-11-27T14:41:56.082Z,76.35
2022-11-27T14:47:22.619Z,76.06
2022-11-27T14:52:50.763Z,78.18
2022-11-27T14:58:22.657Z,77.10
2022-11-27T15:03:55.305Z,76.76
2022-11-27T15:09:35.614Z,74.59
2022-11-27T15:15:06.573Z,74.74
2022-11-27T15:20:41.096Z,73.52
2022-11-27T15:26:02.715Z,74.03
2022-11-27T15:31:33.803Z,76.09
2022-11-27T15:37:03.718Z,75.93
2022-11-27T15:42:28.714Z,75.04
2022-11-27T15:47:58.498Z,75.73
2022-11-27T15:53:20.286Z,77.82
2022-11-27T15:58:42.897Z,79.03
2022-11-27T16:04:04.714Z,76.10
2022-11-27T16:09:26.415Z,77.52
2022-11-27T16:14:48.369Z,78.54
2022-11-27T16:20:10.443Z,80.74
2022-11-27T16:25:32.153Z,80.47
2022-11-27T16:30:55.776Z,80.82
2022-11-27T16:36:19.339Z,80.76
2022-11-27T16:41:41.063Z,80.06
2022-11-27T16:47:02.757Z,80.75
2022-11-27T16:52:24.533Z,79.01
2022-11-27T16:57:46.990Z,78.41
2022-11-27T17:03:08.665Z,79.16
2022-11-27T17:08:30.418Z,77.72
2022-11-27T17:13:55.850Z,77.70
2022-11-27T17:19:18.583Z,80.53
2022-11-27T17:24:40.320Z,80.46
2022-11-27T17:30:01.993Z,75.06
2022-11-27T17:35:23.642Z,73.14
2022-11-27T17:40:45.385Z,75.62
2022-11-27T17:46:08.580Z,77.66
2022-11-27T17:51:32.740Z,73.98
2022-11-27T17:56:54.593Z,75.82
2022-11-27T18:02:16.370Z,75.97
2022-11-27T18:07:38.223Z,75.72
2022-11-27T18:13:00.259Z,72.68
2022-11-27T18:18:21.976Z,72.37
2022-11-27T18:24:14.533Z,72.42
2022-11-27T18:29:25.904Z,73.75
2022-11-27T18:34:47.619Z,72.85
2022-11-27T18:40:09.963Z,73.69
2022-11-27T18:45:33.647Z,73.48
2022-11-27T18:51:13.116Z,72.78
2022-11-27T18:56:34.878Z,72.45
2022-11-27T19:01:56.773Z,72.91
2022-11-27T19:07:18.677Z,71.62
2022-11-27T19:12:40.529Z,72.68
2022-11-27T19:18:02.439Z,69.86
2022-11-27T19:23:24.159Z,71.70
2022-11-27T19:28:49.931Z,72.92
2022-11-27T19:34:12.499Z,73.03
2022-11-27T19:39:34.285Z,71.25
2022-11-27T19:44:56.033Z,71.00
2022-11-27T19:50:18.067Z,71.58
2022-11-27T19:55:39.887Z,69.53
2022-11-27T20:01:11.564Z,70.91
2022-11-27T20:06:33.538Z,72.77
2022-11-27T20:11:55.237Z,73.28
2022-11-27T20:17:17.033Z,71.99
2022-11-27T20:22:39.083Z,73.95
2022-11-27T20:28:00.914Z,72.66
2022-11-27T20:33:23.696Z,72.41
2022-11-27T20:38:45.614Z,73.95
2022-11-27T20:44:11.495Z,72.12
2022-11-27T20:49:33.823Z,74.46
2022-11-27T20:54:55.557Z,73.03
2022-11-27T21:00:17.647Z,71.81
2022-11-27T21:05:39.409Z,73.87
2022-11-27T21:11:12.511Z,72.26
2022-11-27T21:16:37.010Z,71.69
2022-11-27T21:21:59.005Z,73.00
2022-11-27T21:27:22.254Z,75.81
2022-11-27T21:32:44.048Z,74.02
2022-11-27T21:38:05.788Z,73.89
2022-11-27T21:43:27.939Z,74.78
2022-11-27T21:48:51.505Z,74.39
2022-11-27T21:54:14.827Z,74.50
2022-11-27T21:59:36.511Z,75.60
2022-11-27T22:04:58.206Z,74.72
2022-11-27T22:10:19.906Z,75.95
2022-11-27T22:15:41.641Z,75.23
2022-11-27T22:21:08.646Z,76.51
2022-11-27T22:26:30.387Z,75.59
2022-11-27T22:31:53.130Z,76.49
2022-11-27T22:37:14.930Z,75.94
2022-11-27T22:42:36.617Z,74.97
2022-11-27T22:47:58.317Z,75.33
2022-11-27T22:53:20.031Z,75.50
2022-11-27T22:58:42.346Z,75.74
2022-11-27T23:04:04.225Z,75.37
2022-11-27T23:09:26.269Z,75.57
2022-11-27T23:14:47.943Z,76.11
2022-11-27T23:20:10.390Z,75.41
2022-11-27T23:25:32.063Z,75.91
2022-11-27T23:31:08.999Z,75.41
2022-11-27T23:36:36.343Z,76.10
2022-11-27T23:41:58.009Z,75.22
2022-11-27T23:47:19.689Z,74.83
2022-11-27T23:52:41.435Z,75.10
2022-11-27T23:58:03.120Z,75.77
